Crane, Oregon
Current Conditions -  °F | °C
As of 2:53 AM on Friday 24 Oct 2014 (Local Time) from KBNO Reporting Station
Light Rain Light Rain  
Wind Chill:   Ceiling: 4200
Heat Index:   Visibility: 10mi
Dew Point:   Wind: 3mph
Humidity: 93%   Direction: 50°NE
Pressure: 30.08"   Gusts: NA
Location:  43.41°N, 118.58°W
Report Text: KBNO 240953Z AUTO 05003KT 10SM -RA BKN042 OVC050 07/06 A3008 RMK AO2 SLP183 P0002 T00670056
Loading
Personal Weather Stations






























Interactive Weather Map
Tropical Storm Tracking
New forecast layout! Learn more

10-Day Weather Forecast

Advertisements
Track Severe Weather on mobile